Pagina principale
METAR-TAF:

METAR-TAF

Aeroporti :

Mthatha, Sudafrica

latitudine: 31-32-47S, longitudine: 028-40-31E, altezza: 740 m

Osservazione

Il bollettino è stato emesso 50 minuti fa, alle 21:00 UTC
Vento 13 kt da est/sud-est
Temperature 17°C
Umidità 94%
Pressione 1022 hPa

METAR: FAUT 292100Z AUTO 12013KT //// // ////// 17/16 Q1022

Ora: 23:50 (21:50 UTC)


TAF: mancante

Osservazioni e previsioni meteorologiche di più di 4000 aeroporti (messaggi METAR e TAF).

Le stazioni disponibili sono rappresentate dai dischi gialli e rossi sulla carta.

Puntare il mouse per vedere il nome della stazione.

Clicca sopra per visualizzare le osservazioni e previsioni meteorologiche.

Per cambiare la mappa : fare clic sui pulsanti verdi con una croce nera per ingrandire, il pulsante verde con un trattino per diminuire, o sulla freccia verde per le mappe adiacenti.


METAR-TAF: